createdAt,value
2018-07-13T00:01:19.996Z,51.20
2018-07-13T00:03:49.916Z,51.10
2018-07-13T00:06:20.101Z,51.10
2018-07-13T00:08:50.084Z,51.10
2018-07-13T00:11:20.136Z,51.10
2018-07-13T00:14:18.908Z,51.10
2018-07-13T00:16:50.156Z,51.30
2018-07-13T00:19:20.733Z,51.00
2018-07-13T00:21:50.748Z,51.00
2018-07-13T00:24:20.671Z,51.00
2018-07-13T00:26:50.956Z,51.00
2018-07-13T00:29:20.917Z,51.00
2018-07-13T00:31:50.983Z,51.10
2018-07-13T00:34:20.898Z,51.00
2018-07-13T00:36:50.815Z,51.00
2018-07-13T00:39:20.738Z,51.00
2018-07-13T00:41:50.673Z,51.00
2018-07-13T00:44:20.603Z,51.00
2018-07-13T00:46:50.575Z,51.00
2018-07-13T00:49:20.485Z,51.10
2018-07-13T00:51:50.480Z,51.00
2018-07-13T00:54:20.547Z,51.00
2018-07-13T00:56:50.488Z,51.00
2018-07-13T00:59:20.503Z,50.90
2018-07-13T01:01:50.518Z,51.00
2018-07-13T01:04:20.405Z,51.00
2018-07-13T01:06:50.352Z,51.00
2018-07-13T01:09:20.325Z,51.00
2018-07-13T01:11:50.181Z,50.90
2018-07-13T01:14:20.078Z,51.00
2018-07-13T01:16:50.175Z,50.90
2018-07-13T01:19:20.114Z,50.90
2018-07-13T01:21:50.006Z,51.00
2018-07-13T01:24:20.047Z,50.90
2018-07-13T01:26:49.895Z,50.90
2018-07-13T01:29:19.866Z,50.90
2018-07-13T01:31:49.867Z,51.00
2018-07-13T01:34:20.089Z,50.90
2018-07-13T01:36:50.176Z,50.90
2018-07-13T01:39:20.062Z,50.90
2018-07-13T01:41:50.000Z,50.90
2018-07-13T01:44:20.063Z,50.60
2018-07-13T01:46:49.926Z,50.90
2018-07-13T01:49:19.791Z,50.90
2018-07-13T01:51:49.914Z,50.80
2018-07-13T01:54:19.965Z,50.80
2018-07-13T01:56:49.949Z,50.90
2018-07-13T01:59:20.072Z,50.80
2018-07-13T02:01:49.982Z,50.90
2018-07-13T02:04:19.994Z,50.70
2018-07-13T02:06:50.064Z,50.80
2018-07-13T02:09:20.173Z,50.80
2018-07-13T02:11:50.338Z,50.90
2018-07-13T02:14:20.235Z,50.70
2018-07-13T02:16:50.213Z,50.70
2018-07-13T02:19:20.222Z,50.70
2018-07-13T02:21:50.147Z,50.60
2018-07-13T02:26:49.363Z,50.80
2018-07-13T02:29:19.283Z,50.60
2018-07-13T02:31:49.298Z,50.70
2018-07-13T02:34:19.399Z,50.70
2018-07-13T02:36:49.497Z,50.60
2018-07-13T02:39:19.821Z,50.50
2018-07-13T02:41:50.198Z,50.60
2018-07-13T02:44:20.452Z,50.60
2018-07-13T02:46:50.915Z,50.60
2018-07-13T02:49:21.333Z,50.50
2018-07-13T02:51:51.539Z,51.00
2018-07-13T02:54:22.206Z,50.50
2018-07-13T02:56:52.720Z,50.50
2018-07-13T02:59:22.931Z,50.50
2018-07-13T03:01:52.888Z,50.60
2018-07-13T03:04:22.830Z,50.50
2018-07-13T03:06:52.849Z,50.60
2018-07-13T03:09:22.844Z,50.50
2018-07-13T03:11:52.811Z,50.50
2018-07-13T03:14:22.618Z,50.60
2018-07-13T03:16:52.610Z,50.40
2018-07-13T03:19:22.410Z,50.40
2018-07-13T03:21:52.811Z,50.60
2018-07-13T03:24:22.849Z,50.50
2018-07-13T03:26:52.746Z,50.60
2018-07-13T03:29:22.595Z,50.60
2018-07-13T03:31:52.738Z,50.50
2018-07-13T03:34:22.583Z,50.40
2018-07-13T03:36:52.694Z,50.40
2018-07-13T03:39:22.568Z,50.40
2018-07-13T03:41:52.569Z,50.70
2018-07-13T03:44:22.438Z,50.40
2018-07-13T03:46:52.415Z,50.40
2018-07-13T03:49:22.399Z,50.90
2018-07-13T03:51:52.869Z,50.40
2018-07-13T03:54:22.824Z,50.40
2018-07-13T03:56:52.987Z,50.30
2018-07-13T03:59:23.134Z,50.40
2018-07-13T04:01:53.170Z,50.40
2018-07-13T04:04:23.261Z,50.30
2018-07-13T04:06:53.264Z,50.30
2018-07-13T04:09:23.257Z,50.30
2018-07-13T04:11:53.401Z,50.40
2018-07-13T04:14:23.542Z,50.40
2018-07-13T04:16:53.501Z,50.30
2018-07-13T04:19:23.346Z,50.20
2018-07-13T04:21:54.085Z,50.30
2018-07-13T04:24:23.958Z,50.30
2018-07-13T04:26:53.915Z,50.30
2018-07-13T04:29:23.879Z,50.90
2018-07-13T04:31:52.986Z,50.20
2018-07-13T04:34:22.127Z,50.20
2018-07-13T04:36:51.175Z,50.80
2018-07-13T04:39:20.085Z,50.20
2018-07-13T04:41:49.129Z,50.20
2018-07-13T04:44:18.182Z,50.20
2018-07-13T04:46:47.158Z,50.10
2018-07-13T04:49:16.195Z,50.10
2018-07-13T04:51:45.190Z,50.10
2018-07-13T04:54:14.246Z,50.10
2018-07-13T04:56:43.384Z,50.00
2018-07-13T04:59:12.375Z,50.10
2018-07-13T05:01:41.467Z,50.20
2018-07-13T05:04:10.456Z,50.10
2018-07-13T05:06:39.516Z,50.20
2018-07-13T05:09:08.971Z,50.20
2018-07-13T05:11:37.965Z,50.20
2018-07-13T05:14:07.014Z,50.10
2018-07-13T05:16:36.199Z,50.10
2018-07-13T05:19:05.222Z,50.10
2018-07-13T05:21:34.644Z,50.20
2018-07-13T05:24:03.715Z,50.10
2018-07-13T05:26:32.675Z,50.20
2018-07-13T05:29:01.800Z,50.20
2018-07-13T05:31:30.811Z,50.20
2018-07-13T05:33:59.890Z,50.20
2018-07-13T05:36:28.957Z,50.10
2018-07-13T05:38:58.005Z,50.10
2018-07-13T05:41:28.328Z,50.20
2018-07-13T05:43:57.506Z,50.30
2018-07-13T05:46:26.557Z,50.10
2018-07-13T05:48:55.590Z,50.10
2018-07-13T05:51:24.645Z,50.10
2018-07-13T05:53:54.790Z,50.20
2018-07-13T05:56:23.915Z,50.10
2018-07-13T05:58:53.422Z,50.00
2018-07-13T06:01:22.752Z,49.90
2018-07-13T06:03:52.698Z,50.00
2018-07-13T06:06:21.695Z,50.00
2018-07-13T06:08:50.719Z,50.10
2018-07-13T06:11:19.709Z,50.10
2018-07-13T06:13:48.907Z,50.10
2018-07-13T06:16:18.011Z,50.10
2018-07-13T06:18:47.027Z,50.10
2018-07-13T06:21:16.359Z,49.80
2018-07-13T06:23:45.381Z,50.00
2018-07-13T06:26:14.343Z,50.10
2018-07-13T06:28:43.385Z,50.30
2018-07-13T06:31:12.418Z,50.40
2018-07-13T06:33:41.443Z,50.30
2018-07-13T06:36:10.466Z,50.50
2018-07-13T06:38:39.550Z,50.50
2018-07-13T06:41:08.817Z,50.60
2018-07-13T06:43:37.836Z,50.70
2018-07-13T06:46:07.966Z,50.70
2018-07-13T06:48:37.130Z,50.70
2018-07-13T06:51:06.215Z,50.60
2018-07-13T06:53:35.334Z,50.60
2018-07-13T06:56:04.306Z,50.60
2018-07-13T06:58:44.576Z,50.60
2018-07-13T07:01:13.665Z,50.70
2018-07-13T07:04:20.901Z,50.50
2018-07-13T07:06:49.719Z,50.70
2018-07-13T07:09:18.782Z,50.50
2018-07-13T07:11:58.164Z,50.70
2018-07-13T07:14:27.005Z,50.80
2018-07-13T07:16:55.794Z,50.70
2018-07-13T07:19:24.826Z,50.60
2018-07-13T07:21:53.605Z,50.60
2018-07-13T07:24:22.432Z,50.40
2018-07-13T07:26:51.446Z,50.40
2018-07-13T07:29:20.489Z,50.40
2018-07-13T07:31:49.502Z,50.30
2018-07-13T07:34:18.431Z,50.30
2018-07-13T07:36:47.394Z,50.30
2018-07-13T07:39:16.368Z,50.20
2018-07-13T07:41:45.450Z,50.20
2018-07-13T07:44:14.563Z,50.10
2018-07-13T07:46:43.546Z,50.20
2018-07-13T07:49:12.693Z,50.10
2018-07-13T07:51:41.742Z,50.10
2018-07-13T07:54:10.742Z,50.00
2018-07-13T07:56:39.767Z,50.00
2018-07-13T07:59:08.823Z,50.00
2018-07-13T08:01:37.953Z,49.90
2018-07-13T08:04:06.960Z,50.00
2018-07-13T08:06:36.154Z,49.90
2018-07-13T08:09:05.770Z,49.80
2018-07-13T08:11:34.697Z,49.90
2018-07-13T08:14:03.970Z,49.80
2018-07-13T08:16:32.973Z,49.90
2018-07-13T08:19:01.991Z,49.80
2018-07-13T08:21:31.111Z,49.80
2018-07-13T08:24:00.183Z,49.80
2018-07-13T08:26:29.415Z,49.90
2018-07-13T08:28:58.475Z,49.70
2018-07-13T08:31:27.499Z,49.90
2018-07-13T08:33:56.568Z,49.80
2018-07-13T08:36:25.466Z,49.90
2018-07-13T08:38:54.495Z,49.90
2018-07-13T08:41:23.516Z,49.90
2018-07-13T08:43:52.632Z,49.80
2018-07-13T08:46:21.784Z,49.90
2018-07-13T08:48:50.717Z,49.90
2018-07-13T08:51:19.786Z,49.80
2018-07-13T08:53:48.855Z,49.80
2018-07-13T08:56:17.951Z,49.90
2018-07-13T08:58:46.906Z,49.80
2018-07-13T09:01:15.942Z,49.80
2018-07-13T09:03:45.250Z,49.80
2018-07-13T09:06:14.300Z,49.70
2018-07-13T09:08:43.385Z,49.70
2018-07-13T09:11:12.530Z,49.80
2018-07-13T09:13:41.671Z,49.80
2018-07-13T09:16:10.766Z,49.70
2018-07-13T09:18:39.870Z,49.70
2018-07-13T09:21:09.115Z,49.80
2018-07-13T09:23:38.087Z,49.70
2018-07-13T09:26:07.171Z,49.70
2018-07-13T09:28:36.091Z,49.80
2018-07-13T09:31:05.156Z,49.80
2018-07-13T09:33:34.233Z,49.70
2018-07-13T09:36:03.338Z,49.70
2018-07-13T09:38:32.370Z,49.70
2018-07-13T09:41:01.460Z,49.70
2018-07-13T09:43:30.662Z,49.70
2018-07-13T09:45:59.762Z,49.70
2018-07-13T09:48:28.712Z,49.70
2018-07-13T09:50:57.700Z,49.60
2018-07-13T09:53:26.851Z,49.70
2018-07-13T09:55:55.874Z,49.70
2018-07-13T09:58:34.860Z,49.70
2018-07-13T10:01:08.970Z,49.90
2018-07-13T10:03:38.076Z,49.70
2018-07-13T10:06:07.229Z,49.70
2018-07-13T10:08:36.240Z,49.40
2018-07-13T10:11:05.235Z,49.80
2018-07-13T10:13:34.384Z,49.80
2018-07-13T10:16:03.489Z,49.70
2018-07-13T10:18:32.611Z,49.80
2018-07-13T10:21:01.881Z,49.80
2018-07-13T10:23:31.559Z,49.60
2018-07-13T10:26:04.994Z,49.70
2018-07-13T10:28:36.227Z,49.90
2018-07-13T10:31:05.382Z,49.70
2018-07-13T10:33:36.470Z,49.80
2018-07-13T10:36:06.300Z,49.70
2018-07-13T10:38:35.374Z,49.70
2018-07-13T10:41:04.321Z,49.70
2018-07-13T10:43:33.377Z,49.70
2018-07-13T10:46:02.353Z,49.70
2018-07-13T10:48:31.300Z,49.70
2018-07-13T10:51:00.354Z,50.40
2018-07-13T10:53:29.405Z,49.70
2018-07-13T10:55:58.540Z,49.70
2018-07-13T10:58:27.638Z,49.70
2018-07-13T11:00:56.718Z,49.80
2018-07-13T11:03:25.774Z,49.80
2018-07-13T11:05:54.820Z,49.80
2018-07-13T11:08:23.911Z,50.00
2018-07-13T11:10:53.006Z,50.30
2018-07-13T11:13:22.117Z,50.40
2018-07-13T11:15:51.202Z,50.60
2018-07-13T11:18:20.286Z,50.60
2018-07-13T11:20:49.379Z,50.70
2018-07-13T11:23:18.475Z,50.80
2018-07-13T11:25:47.507Z,51.10
2018-07-13T11:28:16.683Z,51.10
2018-07-13T11:30:45.772Z,51.10
2018-07-13T11:33:14.862Z,51.10
2018-07-13T11:35:43.853Z,51.30
2018-07-13T11:38:12.958Z,51.30
2018-07-13T11:40:41.988Z,51.40
2018-07-13T11:43:11.101Z,51.30
2018-07-13T11:45:40.023Z,51.40
2018-07-13T11:48:09.167Z,51.30
2018-07-13T11:50:38.118Z,51.30
2018-07-13T11:53:07.117Z,51.20
2018-07-13T11:55:36.051Z,51.40
2018-07-13T11:58:05.122Z,51.30
2018-07-13T12:00:34.237Z,51.40
2018-07-13T12:03:03.426Z,51.40
2018-07-13T12:05:32.474Z,51.40
2018-07-13T12:08:01.608Z,51.30
2018-07-13T12:10:30.692Z,51.40
2018-07-13T12:12:59.822Z,51.40
2018-07-13T12:15:28.874Z,51.40
2018-07-13T12:17:57.960Z,51.30
2018-07-13T12:20:27.049Z,51.30
2018-07-13T12:22:56.164Z,51.30
2018-07-13T12:25:25.194Z,51.20
2018-07-13T12:27:54.231Z,51.20
2018-07-13T12:30:23.232Z,51.10
2018-07-13T12:32:52.282Z,51.20
2018-07-13T12:35:21.423Z,51.20
2018-07-13T12:37:50.518Z,51.20
2018-07-13T12:40:19.551Z,51.30
2018-07-13T12:42:48.710Z,51.30
2018-07-13T12:45:17.795Z,51.20
2018-07-13T12:47:46.795Z,51.20
2018-07-13T12:50:15.838Z,51.20
2018-07-13T12:52:44.948Z,51.20
2018-07-13T12:55:13.888Z,51.10
2018-07-13T12:57:42.965Z,51.20
2018-07-13T13:00:12.045Z,51.30
2018-07-13T13:02:41.215Z,51.20
2018-07-13T13:05:10.261Z,51.30
2018-07-13T13:07:39.352Z,51.10
2018-07-13T13:10:08.457Z,51.20
2018-07-13T13:12:37.496Z,51.20
2018-07-13T13:15:06.587Z,51.20
2018-07-13T13:17:35.634Z,51.10
2018-07-13T13:20:04.658Z,51.10
2018-07-13T13:22:33.718Z,51.10
2018-07-13T13:25:02.669Z,51.00
2018-07-13T13:27:31.695Z,51.10
2018-07-13T13:30:00.794Z,51.00
2018-07-13T13:32:29.895Z,51.10
2018-07-13T13:34:58.938Z,51.20
2018-07-13T13:37:28.034Z,51.20
2018-07-13T13:39:57.155Z,51.10
2018-07-13T13:42:26.461Z,51.20
2018-07-13T13:44:55.646Z,51.20
2018-07-13T13:47:24.668Z,51.30
2018-07-13T13:49:53.849Z,51.40
2018-07-13T13:52:22.903Z,51.30
2018-07-13T13:54:51.983Z,51.40
2018-07-13T13:57:21.051Z,51.40
2018-07-13T13:59:53.905Z,51.50
2018-07-13T14:02:22.827Z,51.60
2018-07-13T14:04:51.871Z,51.50
2018-07-13T14:07:20.812Z,51.50
2018-07-13T14:09:49.950Z,51.50
2018-07-13T14:12:19.072Z,51.50
2018-07-13T14:14:49.939Z,51.50
2018-07-13T14:17:19.065Z,51.70
2018-07-13T14:19:48.063Z,51.60
2018-07-13T14:22:17.059Z,51.60
2018-07-13T14:24:46.134Z,51.60
2018-07-13T14:27:15.215Z,51.70
2018-07-13T14:29:44.441Z,51.60
2018-07-13T14:32:13.550Z,51.70
2018-07-13T14:34:42.732Z,51.60
2018-07-13T14:37:11.803Z,51.60
2018-07-13T14:39:40.837Z,51.60
2018-07-13T14:42:09.782Z,51.60
2018-07-13T14:44:38.889Z,51.60
2018-07-13T14:47:08.103Z,51.50
2018-07-13T14:49:37.014Z,51.40
2018-07-13T14:52:06.072Z,51.40
2018-07-13T14:54:35.051Z,51.20
2018-07-13T14:57:04.261Z,51.20
2018-07-13T14:59:33.387Z,51.00
2018-07-13T15:02:02.442Z,51.00
2018-07-13T15:04:31.483Z,51.00
2018-07-13T15:07:00.534Z,50.90
2018-07-13T15:09:29.585Z,50.90
2018-07-13T15:11:58.509Z,50.90
2018-07-13T15:14:27.447Z,50.80
2018-07-13T15:16:56.389Z,50.90
2018-07-13T15:19:25.170Z,50.80
2018-07-13T15:21:54.385Z,50.80
2018-07-13T15:24:23.395Z,50.80
2018-07-13T15:26:52.509Z,50.80
2018-07-13T15:29:21.481Z,50.80
2018-07-13T15:31:50.591Z,50.70
2018-07-13T15:34:19.605Z,50.70
2018-07-13T15:36:48.676Z,50.50
2018-07-13T15:39:17.794Z,50.40
2018-07-13T15:41:46.763Z,50.40
2018-07-13T15:44:15.882Z,50.20
2018-07-13T15:46:44.972Z,50.30
2018-07-13T15:49:14.079Z,50.20
2018-07-13T15:51:43.137Z,50.10
2018-07-13T15:54:12.199Z,50.00
2018-07-13T15:56:41.338Z,50.10
2018-07-13T15:59:10.244Z,50.00
2018-07-13T16:01:39.334Z,49.90
2018-07-13T16:04:08.398Z,49.70
2018-07-13T16:06:37.514Z,49.70
2018-07-13T16:09:06.690Z,49.70
2018-07-13T16:11:35.757Z,49.60
2018-07-13T16:14:04.890Z,49.50
2018-07-13T16:16:33.899Z,49.60
2018-07-13T16:19:03.054Z,49.60
2018-07-13T16:21:32.182Z,49.50
2018-07-13T16:24:01.308Z,49.70
2018-07-13T16:26:30.368Z,49.80
2018-07-13T16:28:59.385Z,50.10
2018-07-13T16:31:28.488Z,50.40
2018-07-13T16:33:57.580Z,50.50
2018-07-13T16:36:26.670Z,50.50
2018-07-13T16:38:55.502Z,50.70
2018-07-13T16:41:24.543Z,50.70
2018-07-13T16:43:53.602Z,50.90
2018-07-13T16:46:22.742Z,50.90
2018-07-13T16:48:51.800Z,51.00
2018-07-13T16:51:20.738Z,51.00
2018-07-13T16:53:49.671Z,51.10
2018-07-13T16:56:18.850Z,51.00
2018-07-13T16:58:47.762Z,51.10
2018-07-13T17:01:16.746Z,51.70
2018-07-13T17:03:46.209Z,51.00
2018-07-13T17:06:15.605Z,51.10
2018-07-13T17:08:44.870Z,50.90
2018-07-13T17:11:14.412Z,50.10
2018-07-13T17:13:43.369Z,49.90
2018-07-13T17:16:13.600Z,49.60
2018-07-13T17:18:43.759Z,49.50
2018-07-13T17:21:13.459Z,49.20
2018-07-13T17:23:42.641Z,48.90
2018-07-13T17:26:11.671Z,48.70
2018-07-13T17:28:40.626Z,48.40
2018-07-13T17:31:09.698Z,48.30
2018-07-13T17:33:38.726Z,48.30
2018-07-13T17:36:07.851Z,48.40
2018-07-13T17:38:38.605Z,48.20
2018-07-13T17:41:07.666Z,48.30
2018-07-13T17:43:36.617Z,48.30
2018-07-13T17:46:06.581Z,48.20
2018-07-13T17:48:35.647Z,48.50
2018-07-13T17:51:04.669Z,48.40
2018-07-13T17:53:33.578Z,48.00
2018-07-13T17:56:02.595Z,47.80
2018-07-13T17:58:31.628Z,48.00
2018-07-13T18:01:00.547Z,48.00
2018-07-13T18:03:29.818Z,47.90
2018-07-13T18:05:58.975Z,47.90
2018-07-13T18:08:27.954Z,47.70
2018-07-13T18:10:56.997Z,47.90
2018-07-13T18:13:26.043Z,47.70
2018-07-13T18:15:55.206Z,47.60
2018-07-13T18:18:24.136Z,47.70
2018-07-13T18:20:53.339Z,47.50
2018-07-13T18:23:22.322Z,47.70
2018-07-13T18:25:51.422Z,47.70
2018-07-13T18:28:20.508Z,47.60
2018-07-13T18:30:49.505Z,47.70
2018-07-13T18:33:18.604Z,47.80
2018-07-13T18:35:47.505Z,47.80
2018-07-13T18:38:16.638Z,47.80
2018-07-13T18:40:45.898Z,47.80
2018-07-13T18:43:14.993Z,47.80
2018-07-13T18:45:43.986Z,47.80
2018-07-13T18:48:13.019Z,47.90
2018-07-13T18:50:42.177Z,47.90
2018-07-13T18:53:11.257Z,47.80
2018-07-13T18:55:40.410Z,47.80
2018-07-13T18:58:09.464Z,47.80
2018-07-13T19:00:38.563Z,47.70
2018-07-13T19:03:07.498Z,47.70
2018-07-13T19:05:36.534Z,47.80
2018-07-13T19:08:05.671Z,47.70
2018-07-13T19:10:34.619Z,47.70
2018-07-13T19:13:03.645Z,47.60
2018-07-13T19:15:32.595Z,47.70
2018-07-13T19:18:01.650Z,47.60
2018-07-13T19:20:30.686Z,47.70
2018-07-13T19:22:59.734Z,47.60
2018-07-13T19:25:28.831Z,47.60
2018-07-13T19:27:57.907Z,47.60
2018-07-13T19:30:27.098Z,47.60
2018-07-13T19:32:56.198Z,47.60
2018-07-13T19:35:25.231Z,47.60
2018-07-13T19:37:54.271Z,47.70
2018-07-13T19:40:23.369Z,47.60
2018-07-13T19:42:52.507Z,48.00
2018-07-13T19:45:21.457Z,48.10
2018-07-13T19:47:50.529Z,48.20
2018-07-13T19:50:19.641Z,48.20
2018-07-13T19:52:48.880Z,48.30
2018-07-13T19:55:18.212Z,48.20
2018-07-13T19:57:47.423Z,48.20
2018-07-13T20:00:16.726Z,48.60
2018-07-13T20:02:45.887Z,48.50
2018-07-13T20:05:15.022Z,48.60
2018-07-13T20:07:44.154Z,48.50
2018-07-13T20:10:13.293Z,48.80
2018-07-13T20:12:42.667Z,48.60
2018-07-13T20:15:11.906Z,48.70
2018-07-13T20:17:41.039Z,48.90
2018-07-13T20:20:10.615Z,48.80
2018-07-13T20:22:39.985Z,48.90
2018-07-13T20:25:09.346Z,48.80
2018-07-13T20:27:38.522Z,48.20
2018-07-13T20:30:09.867Z,48.80
2018-07-13T20:32:41.311Z,49.00
2018-07-13T20:35:19.981Z,49.10
2018-07-13T20:37:55.818Z,49.10
2018-07-13T20:42:56.483Z,49.10
2018-07-13T20:45:25.977Z,49.10
2018-07-13T20:47:55.359Z,49.10
2018-07-13T20:50:24.975Z,48.90
2018-07-13T20:52:54.134Z,49.20
2018-07-13T20:55:24.708Z,49.00
2018-07-13T20:57:53.672Z,49.00
2018-07-13T21:00:25.469Z,49.00
2018-07-13T21:02:56.611Z,49.20
2018-07-13T21:05:26.640Z,49.10
2018-07-13T21:07:56.574Z,49.00
2018-07-13T21:10:26.653Z,49.00
2018-07-13T21:12:59.408Z,49.20
2018-07-13T21:18:01.058Z,49.40
2018-07-13T21:20:31.091Z,49.30
2018-07-13T21:23:01.124Z,49.20
2018-07-13T21:25:32.348Z,49.10
2018-07-13T21:28:02.294Z,49.20
2018-07-13T21:30:32.254Z,49.20
2018-07-13T21:33:02.667Z,49.20
2018-07-13T21:35:33.897Z,49.00
2018-07-13T21:38:05.849Z,49.60
2018-07-13T21:40:35.921Z,49.00
2018-07-13T21:43:06.090Z,48.80
2018-07-13T21:45:36.072Z,49.00
2018-07-13T21:48:07.403Z,48.90
2018-07-13T21:53:07.086Z,49.10
2018-07-13T21:55:37.293Z,48.80
2018-07-13T21:58:07.612Z,48.80
2018-07-13T22:00:37.475Z,48.90
2018-07-13T22:03:07.388Z,48.80
2018-07-13T22:05:37.332Z,48.80
2018-07-13T22:08:07.260Z,48.80
2018-07-13T22:10:37.410Z,48.80
2018-07-13T22:13:07.460Z,48.80
2018-07-13T22:15:37.457Z,48.70
2018-07-13T22:18:07.537Z,48.70
2018-07-13T22:20:37.510Z,48.70
2018-07-13T22:23:07.605Z,48.70
2018-07-13T22:25:37.566Z,48.70
2018-07-13T22:28:08.272Z,48.60
2018-07-13T22:30:39.457Z,48.70
2018-07-13T22:33:09.958Z,48.60
2018-07-13T22:35:40.869Z,48.70
2018-07-13T22:38:11.882Z,48.60
2018-07-13T22:40:44.003Z,48.80
2018-07-13T22:43:15.273Z,48.50
2018-07-13T22:45:46.657Z,48.50
2018-07-13T22:48:17.827Z,48.40
2018-07-13T22:50:48.623Z,48.50
2018-07-13T22:53:19.862Z,48.30
2018-07-13T22:55:49.832Z,47.90
2018-07-13T22:58:19.916Z,47.80
2018-07-13T23:00:49.852Z,47.70
2018-07-13T23:03:19.870Z,47.50
2018-07-13T23:05:49.947Z,47.90
2018-07-13T23:08:20.159Z,47.70
2018-07-13T23:10:50.308Z,47.60
2018-07-13T23:13:20.319Z,47.50
2018-07-13T23:15:50.195Z,47.40
2018-07-13T23:18:20.459Z,47.30
2018-07-13T23:20:50.438Z,47.30
2018-07-13T23:23:20.380Z,47.20
2018-07-13T23:25:50.462Z,47.20
2018-07-13T23:28:20.414Z,47.10
2018-07-13T23:30:50.473Z,47.20
2018-07-13T23:33:20.420Z,47.10
2018-07-13T23:35:50.548Z,47.10
2018-07-13T23:38:20.551Z,47.00
2018-07-13T23:40:50.656Z,47.00
2018-07-13T23:43:20.593Z,47.00
2018-07-13T23:45:51.294Z,47.00
2018-07-13T23:48:21.329Z,47.10
2018-07-13T23:50:51.419Z,46.80
2018-07-13T23:53:21.280Z,46.80
2018-07-13T23:55:51.500Z,46.90
2018-07-13T23:58:21.533Z,47.10
